sensor_id;sensor_type;location;lat;lon;timestamp;pressure;altitude;pressure_sealevel;temperature;humidity
42859;BME280;28505;56.970;40.998;2023-02-22T00:02:37;98527.78;;;-16.25;100.00
42859;BME280;28505;56.970;40.998;2023-02-22T00:08:02;98555.56;;;-16.11;100.00
42859;BME280;28505;56.970;40.998;2023-02-22T00:13:26;98550.41;;;-16.11;100.00
42859;BME280;28505;56.970;40.998;2023-02-22T00:18:54;98537.50;;;-16.11;100.00
42859;BME280;28505;56.970;40.998;2023-02-22T00:24:16;98564.81;;;-15.84;100.00
42859;BME280;28505;56.970;40.998;2023-02-22T00:29:49;98569.03;;;-15.74;100.00
42859;BME280;28505;56.970;40.998;2023-02-22T00:35:16;98577.25;;;-15.71;100.00
42859;BME280;28505;56.970;40.998;2023-02-22T00:40:39;98567.09;;;-15.80;100.00
42859;BME280;28505;56.970;40.998;2023-02-22T00:46:02;98571.72;;;-15.92;100.00
42859;BME280;28505;56.970;40.998;2023-02-22T00:51:25;98564.47;;;-15.97;100.00
42859;BME280;28505;56.970;40.998;2023-02-22T00:56:53;98589.47;;;-15.97;100.00
42859;BME280;28505;56.970;40.998;2023-02-22T01:02:22;98570.53;;;-16.22;100.00
42859;BME280;28505;56.970;40.998;2023-02-22T01:07:46;98579.06;;;-16.30;100.00
42859;BME280;28505;56.970;40.998;2023-02-22T01:13:09;98607.13;;;-16.27;100.00
42859;BME280;28505;56.970;40.998;2023-02-22T01:18:34;98614.31;;;-16.39;100.00
42859;BME280;28505;56.970;40.998;2023-02-22T01:23:59;98619.94;;;-16.43;100.00
42859;BME280;28505;56.970;40.998;2023-02-22T01:29:21;98605.31;;;-16.69;100.00
42859;BME280;28505;56.970;40.998;2023-02-22T01:34:44;98618.50;;;-16.72;100.00
42859;BME280;28505;56.970;40.998;2023-02-22T01:40:13;98645.97;;;-16.63;100.00
42859;BME280;28505;56.970;40.998;2023-02-22T01:45:47;98646.94;;;-16.64;100.00
42859;BME280;28505;56.970;40.998;2023-02-22T01:51:21;98601.59;;;-17.01;100.00
42859;BME280;28505;56.970;40.998;2023-02-22T01:56:56;98656.22;;;-16.71;100.00
42859;BME280;28505;56.970;40.998;2023-02-22T02:02:21;98663.63;;;-16.68;100.00
42859;BME280;28505;56.970;40.998;2023-02-22T02:07:47;98654.47;;;-16.70;100.00
42859;BME280;28505;56.970;40.998;2023-02-22T02:13:13;98673.72;;;-16.57;100.00
42859;BME280;28505;56.970;40.998;2023-02-22T02:18:57;98682.47;;;-16.49;100.00
42859;BME280;28505;56.970;40.998;2023-02-22T02:36:02;98678.31;;;-16.42;100.00
42859;BME280;28505;56.970;40.998;2023-02-22T02:41:47;98666.50;;;-16.53;100.00
42859;BME280;28505;56.970;40.998;2023-02-22T02:47:23;98707.59;;;-16.25;100.00
42859;BME280;28505;56.970;40.998;2023-02-22T02:52:52;98674.25;;;-16.45;100.00
42859;BME280;28505;56.970;40.998;2023-02-22T02:58:20;98681.25;;;-16.37;100.00
42859;BME280;28505;56.970;40.998;2023-02-22T03:09:28;98705.81;;;-16.25;100.00
42859;BME280;28505;56.970;40.998;2023-02-22T03:21:15;98729.75;;;-16.15;100.00
42859;BME280;28505;56.970;40.998;2023-02-22T03:26:41;98717.41;;;-16.29;100.00
42859;BME280;28505;56.970;40.998;2023-02-22T03:32:12;98724.34;;;-16.30;100.00
42859;BME280;28505;56.970;40.998;2023-02-22T03:37:42;98726.78;;;-16.28;100.00
42859;BME280;28505;56.970;40.998;2023-02-22T03:43:09;98722.31;;;-16.44;100.00
42859;BME280;28505;56.970;40.998;2023-02-22T03:49:02;98759.16;;;-16.34;100.00
42859;BME280;28505;56.970;40.998;2023-02-22T03:54:31;98739.28;;;-16.59;100.00
42859;BME280;28505;56.970;40.998;2023-02-22T03:59:53;98782.56;;;-16.53;100.00
42859;BME280;28505;56.970;40.998;2023-02-22T04:05:15;98731.50;;;-16.93;100.00
42859;BME280;28505;56.970;40.998;2023-02-22T04:10:37;98776.56;;;-16.80;100.00
42859;BME280;28505;56.970;40.998;2023-02-22T04:16:01;98795.19;;;-16.86;100.00
42859;BME280;28505;56.970;40.998;2023-02-22T04:21:24;98771.91;;;-17.12;100.00
42859;BME280;28505;56.970;40.998;2023-02-22T04:26:46;98820.34;;;-16.97;100.00
42859;BME280;28505;56.970;40.998;2023-02-22T04:32:09;98805.84;;;-17.16;100.00
42859;BME280;28505;56.970;40.998;2023-02-22T04:37:32;98832.50;;;-17.08;100.00
42859;BME280;28505;56.970;40.998;2023-02-22T04:42:58;98831.16;;;-17.12;100.00
42859;BME280;28505;56.970;40.998;2023-02-22T04:48:22;98829.84;;;-17.16;100.00
42859;BME280;28505;56.970;40.998;2023-02-22T04:53:44;98825.50;;;-17.15;100.00
42859;BME280;28505;56.970;40.998;2023-02-22T04:59:07;98837.13;;;-17.11;100.00
42859;BME280;28505;56.970;40.998;2023-02-22T05:04:30;98851.72;;;-17.02;100.00
42859;BME280;28505;56.970;40.998;2023-02-22T05:09:53;98854.66;;;-16.97;100.00
42859;BME280;28505;56.970;40.998;2023-02-22T05:15:18;98857.06;;;-16.86;100.00
42859;BME280;28505;56.970;40.998;2023-02-22T05:20:40;98842.56;;;-16.87;100.00
42859;BME280;28505;56.970;40.998;2023-02-22T05:26:06;98858.59;;;-16.75;100.00
42859;BME280;28505;56.970;40.998;2023-02-22T05:31:33;98866.47;;;-16.59;100.00
42859;BME280;28505;56.970;40.998;2023-02-22T05:36:59;98875.97;;;-16.41;100.00
42859;BME280;28505;56.970;40.998;2023-02-22T05:42:21;98867.22;;;-16.31;100.00
42859;BME280;28505;56.970;40.998;2023-02-22T05:47:44;98845.09;;;-16.33;100.00
42859;BME280;28505;56.970;40.998;2023-02-22T05:53:06;98867.88;;;-16.11;100.00
42859;BME280;28505;56.970;40.998;2023-02-22T05:58:28;98864.72;;;-15.96;100.00
42859;BME280;28505;56.970;40.998;2023-02-22T06:03:50;98874.34;;;-15.80;100.00
42859;BME280;28505;56.970;40.998;2023-02-22T06:09:16;98911.97;;;-15.52;100.00
42859;BME280;28505;56.970;40.998;2023-02-22T06:14:38;98899.00;;;-15.60;100.00
42859;BME280;28505;56.970;40.998;2023-02-22T06:20:11;98904.41;;;-15.45;100.00
42859;BME280;28505;56.970;40.998;2023-02-22T06:25:34;98893.81;;;-15.34;100.00
42859;BME280;28505;56.970;40.998;2023-02-22T06:30:57;98900.94;;;-15.36;100.00
42859;BME280;28505;56.970;40.998;2023-02-22T06:36:19;98940.06;;;-14.89;100.00
42859;BME280;28505;56.970;40.998;2023-02-22T06:41:43;98938.53;;;-14.73;100.00
42859;BME280;28505;56.970;40.998;2023-02-22T06:47:11;98963.50;;;-14.40;100.00
42859;BME280;28505;56.970;40.998;2023-02-22T06:52:40;98952.03;;;-14.37;100.00
42859;BME280;28505;56.970;40.998;2023-02-22T06:58:09;98977.41;;;-14.41;100.00
42859;BME280;28505;56.970;40.998;2023-02-22T07:03:35;98943.72;;;-14.65;100.00
42859;BME280;28505;56.970;40.998;2023-02-22T07:09:01;98961.41;;;-14.44;100.00
42859;BME280;28505;56.970;40.998;2023-02-22T07:14:25;98966.94;;;-14.23;100.00
42859;BME280;28505;56.970;40.998;2023-02-22T07:19:48;98988.03;;;-13.93;100.00
42859;BME280;28505;56.970;40.998;2023-02-22T07:25:11;98970.56;;;-13.75;100.00
42859;BME280;28505;56.970;40.998;2023-02-22T07:30:36;98967.63;;;-13.80;100.00
42859;BME280;28505;56.970;40.998;2023-02-22T07:35:59;98980.09;;;-13.67;100.00
42859;BME280;28505;56.970;40.998;2023-02-22T07:41:21;98987.25;;;-13.61;100.00
42859;BME280;28505;56.970;40.998;2023-02-22T07:46:47;98991.28;;;-13.58;100.00
42859;BME280;28505;56.970;40.998;2023-02-22T07:52:12;98983.53;;;-13.58;100.00
42859;BME280;28505;56.970;40.998;2023-02-22T07:57:35;98977.66;;;-13.44;100.00
42859;BME280;28505;56.970;40.998;2023-02-22T08:03:03;99004.84;;;-13.07;100.00
42859;BME280;28505;56.970;40.998;2023-02-22T08:08:25;98985.44;;;-13.28;100.00
42859;BME280;28505;56.970;40.998;2023-02-22T08:13:47;98993.81;;;-13.01;100.00
42859;BME280;28505;56.970;40.998;2023-02-22T08:19:09;98979.00;;;-12.92;100.00
42859;BME280;28505;56.970;40.998;2023-02-22T08:24:32;98983.06;;;-12.98;100.00
42859;BME280;28505;56.970;40.998;2023-02-22T08:29:54;98980.44;;;-12.82;100.00
42859;BME280;28505;56.970;40.998;2023-02-22T08:35:19;98998.91;;;-12.77;100.00
42859;BME280;28505;56.970;40.998;2023-02-22T08:40:38;99004.03;;;-12.52;100.00
42859;BME280;28505;56.970;40.998;2023-02-22T08:46:01;98973.97;;;-12.78;100.00
42859;BME280;28505;56.970;40.998;2023-02-22T08:51:23;98975.19;;;-12.65;100.00
42859;BME280;28505;56.970;40.998;2023-02-22T08:56:48;98981.69;;;-12.69;100.00
42859;BME280;28505;56.970;40.998;2023-02-22T09:02:15;98982.97;;;-12.65;100.00
42859;BME280;28505;56.970;40.998;2023-02-22T09:07:40;98968.09;;;-12.71;100.00
42859;BME280;28505;56.970;40.998;2023-02-22T09:13:03;98967.47;;;-12.82;100.00
42859;BME280;28505;56.970;40.998;2023-02-22T09:18:27;98987.34;;;-12.58;100.00
42859;BME280;28505;56.970;40.998;2023-02-22T09:24:04;99001.25;;;-12.42;100.00
42859;BME280;28505;56.970;40.998;2023-02-22T09:29:29;98987.06;;;-12.32;100.00
42859;BME280;28505;56.970;40.998;2023-02-22T09:34:51;98971.72;;;-12.18;100.00
42859;BME280;28505;56.970;40.998;2023-02-22T09:40:17;98988.81;;;-11.93;100.00
42859;BME280;28505;56.970;40.998;2023-02-22T09:46:28;99006.66;;;-11.90;100.00
42859;BME280;28505;56.970;40.998;2023-02-22T09:57:34;98995.69;;;-12.08;100.00
42859;BME280;28505;56.970;40.998;2023-02-22T10:03:19;99028.75;;;-11.94;100.00
42859;BME280;28505;56.970;40.998;2023-02-22T10:08:43;99016.94;;;-11.82;100.00
42859;BME280;28505;56.970;40.998;2023-02-22T10:25:27;99025.06;;;-11.76;100.00
42859;BME280;28505;56.970;40.998;2023-02-22T10:30:58;98995.00;;;-11.79;100.00
42859;BME280;28505;56.970;40.998;2023-02-22T10:36:26;99038.75;;;-11.37;100.00
42859;BME280;28505;56.970;40.998;2023-02-22T10:41:51;99021.03;;;-11.41;100.00
42859;BME280;28505;56.970;40.998;2023-02-22T10:47:17;99040.81;;;-11.32;99.35
42859;BME280;28505;56.970;40.998;2023-02-22T10:52:42;99009.47;;;-11.39;100.00
42859;BME280;28505;56.970;40.998;2023-02-22T10:58:06;99028.19;;;-11.20;98.95
42859;BME280;28505;56.970;40.998;2023-02-22T11:03:29;99015.19;;;-11.20;99.38
42859;BME280;28505;56.970;40.998;2023-02-22T11:09:03;99034.31;;;-11.13;97.70
42859;BME280;28505;56.970;40.998;2023-02-22T11:14:28;99048.88;;;-11.04;97.68
42859;BME280;28505;56.970;40.998;2023-02-22T11:19:51;99056.03;;;-11.06;96.84
42859;BME280;28505;56.970;40.998;2023-02-22T11:25:19;99023.81;;;-11.20;97.48
42859;BME280;28505;56.970;40.998;2023-02-22T11:30:46;99052.22;;;-10.95;96.87
42859;BME280;28505;56.970;40.998;2023-02-22T11:36:11;99064.31;;;-11.02;93.81
42859;BME280;28505;56.970;40.998;2023-02-22T11:41:36;99067.25;;;-11.05;94.36
42859;BME280;28505;56.970;40.998;2023-02-22T11:47:01;99062.88;;;-11.05;93.43
42859;BME280;28505;56.970;40.998;2023-02-22T11:52:34;99061.03;;;-11.19;91.41
42859;BME280;28505;56.970;40.998;2023-02-22T12:04:31;99080.91;;;-11.03;93.40
42859;BME280;28505;56.970;40.998;2023-02-22T12:10:07;99081.66;;;-10.95;94.24
42859;BME280;28505;56.970;40.998;2023-02-22T12:21:20;99093.16;;;-10.89;93.10
42859;BME280;28505;56.970;40.998;2023-02-22T12:26:49;99106.75;;;-10.79;93.60
42859;BME280;28505;56.970;40.998;2023-02-22T12:43:56;99051.97;;;-11.23;90.56
42859;BME280;28505;56.970;40.998;2023-02-22T12:55:14;99138.66;;;-10.47;90.72
42859;BME280;28505;56.970;40.998;2023-02-22T13:12:18;99127.88;;;-11.20;93.41
42859;BME280;28505;56.970;40.998;2023-02-22T13:23:42;99122.59;;;-11.35;96.68
42859;BME280;28505;56.970;40.998;2023-02-22T13:29:53;99128.22;;;-11.46;97.63
42859;BME280;28505;56.970;40.998;2023-02-22T13:51:53;99166.81;;;-11.97;99.59
42859;BME280;28505;56.970;40.998;2023-02-22T13:57:23;99162.97;;;-12.09;100.00
42859;BME280;28505;56.970;40.998;2023-02-22T14:19:21;99181.56;;;-12.53;100.00
42859;BME280;28505;56.970;40.998;2023-02-22T14:24:45;99194.22;;;-12.58;100.00
42859;BME280;28505;56.970;40.998;2023-02-22T14:30:26;99196.66;;;-12.73;100.00
42859;BME280;28505;56.970;40.998;2023-02-22T14:35:54;99173.13;;;-12.96;100.00
42859;BME280;28505;56.970;40.998;2023-02-22T14:41:16;99191.44;;;-12.89;100.00
42859;BME280;28505;56.970;40.998;2023-02-22T14:47:02;99197.59;;;-12.99;100.00
42859;BME280;28505;56.970;40.998;2023-02-22T14:52:28;99203.78;;;-13.00;100.00
42859;BME280;28505;56.970;40.998;2023-02-22T14:58:11;99226.00;;;-12.89;100.00
42859;BME280;28505;56.970;40.998;2023-02-22T15:03:39;99213.50;;;-13.02;100.00
42859;BME280;28505;56.970;40.998;2023-02-22T15:14:36;99248.09;;;-12.85;100.00
42859;BME280;28505;56.970;40.998;2023-02-22T15:20:07;99218.84;;;-13.03;100.00
42859;BME280;28505;56.970;40.998;2023-02-22T15:25:33;99239.59;;;-12.95;100.00
42859;BME280;28505;56.970;40.998;2023-02-22T15:31:37;99265.72;;;-12.88;100.00
42859;BME280;28505;56.970;40.998;2023-02-22T15:37:21;99266.03;;;-13.08;100.00
42859;BME280;28505;56.970;40.998;2023-02-22T15:42:48;99249.94;;;-13.28;100.00
42859;BME280;28505;56.970;40.998;2023-02-22T15:48:10;99288.84;;;-13.19;100.00
42859;BME280;28505;56.970;40.998;2023-02-22T15:53:46;99280.38;;;-13.38;100.00
42859;BME280;28505;56.970;40.998;2023-02-22T15:59:14;99295.09;;;-13.47;100.00
42859;BME280;28505;56.970;40.998;2023-02-22T16:04:39;99286.09;;;-13.60;100.00
42859;BME280;28505;56.970;40.998;2023-02-22T16:10:34;99281.38;;;-13.73;100.00
42859;BME280;28505;56.970;40.998;2023-02-22T16:16:20;99286.31;;;-13.80;100.00
42859;BME280;28505;56.970;40.998;2023-02-22T16:21:55;99307.09;;;-13.72;100.00
42859;BME280;28505;56.970;40.998;2023-02-22T16:27:40;99285.91;;;-13.93;100.00
42859;BME280;28505;56.970;40.998;2023-02-22T16:33:09;99323.06;;;-13.84;100.00
42859;BME280;28505;56.970;40.998;2023-02-22T16:38:34;99298.13;;;-14.11;100.00
42859;BME280;28505;56.970;40.998;2023-02-22T16:43:59;99290.75;;;-14.24;100.00
42859;BME280;28505;56.970;40.998;2023-02-22T16:49:21;99288.03;;;-14.41;100.00
42859;BME280;28505;56.970;40.998;2023-02-22T16:54:46;99279.78;;;-14.62;100.00
42859;BME280;28505;56.970;40.998;2023-02-22T17:00:19;99336.09;;;-14.38;100.00
42859;BME280;28505;56.970;40.998;2023-02-22T17:05:52;99332.72;;;-14.56;100.00
42859;BME280;28505;56.970;40.998;2023-02-22T17:11:32;99350.59;;;-14.63;100.00
42859;BME280;28505;56.970;40.998;2023-02-22T17:16:54;99305.38;;;-15.04;100.00
42859;BME280;28505;56.970;40.998;2023-02-22T17:22:21;99339.91;;;-14.96;100.00
42859;BME280;28505;56.970;40.998;2023-02-22T17:27:43;99323.47;;;-15.22;100.00
42859;BME280;28505;56.970;40.998;2023-02-22T17:33:07;99332.72;;;-15.20;100.00
42859;BME280;28505;56.970;40.998;2023-02-22T17:38:30;99361.34;;;-15.03;100.00
42859;BME280;28505;56.970;40.998;2023-02-22T17:43:57;99343.97;;;-15.21;100.00
42859;BME280;28505;56.970;40.998;2023-02-22T17:49:19;99341.13;;;-15.18;100.00
42859;BME280;28505;56.970;40.998;2023-02-22T17:54:41;99335.84;;;-15.26;100.00
42859;BME280;28505;56.970;40.998;2023-02-22T18:00:05;99378.47;;;-15.02;100.00
42859;BME280;28505;56.970;40.998;2023-02-22T18:05:44;99375.03;;;-14.93;100.00
42859;BME280;28505;56.970;40.998;2023-02-22T18:11:13;99366.31;;;-14.92;100.00
42859;BME280;28505;56.970;40.998;2023-02-22T18:16:36;99361.25;;;-14.84;100.00
42859;BME280;28505;56.970;40.998;2023-02-22T18:22:03;99374.00;;;-14.55;100.00
42859;BME280;28505;56.970;40.998;2023-02-22T18:27:25;99378.31;;;-14.37;100.00
42859;BME280;28505;56.970;40.998;2023-02-22T18:32:50;99350.50;;;-14.35;100.00
42859;BME280;28505;56.970;40.998;2023-02-22T18:38:13;99356.16;;;-14.22;100.00
42859;BME280;28505;56.970;40.998;2023-02-22T18:43:35;99360.88;;;-14.18;100.00
42859;BME280;28505;56.970;40.998;2023-02-22T18:48:57;99396.28;;;-14.00;100.00
42859;BME280;28505;56.970;40.998;2023-02-22T18:54:20;99393.25;;;-13.96;100.00
42859;BME280;28505;56.970;40.998;2023-02-22T18:59:43;99378.81;;;-13.98;100.00
42859;BME280;28505;56.970;40.998;2023-02-22T19:05:05;99388.28;;;-13.89;100.00
42859;BME280;28505;56.970;40.998;2023-02-22T19:10:27;99387.31;;;-13.88;100.00
42859;BME280;28505;56.970;40.998;2023-02-22T19:15:50;99402.06;;;-13.88;100.00
42859;BME280;28505;56.970;40.998;2023-02-22T19:21:12;99391.47;;;-13.95;100.00
42859;BME280;28505;56.970;40.998;2023-02-22T19:26:35;99409.84;;;-13.88;100.00
42859;BME280;28505;56.970;40.998;2023-02-22T19:31:57;99390.16;;;-13.99;100.00
42859;BME280;28505;56.970;40.998;2023-02-22T19:37:19;99428.81;;;-13.80;100.00
42859;BME280;28505;56.970;40.998;2023-02-22T19:42:43;99389.78;;;-14.04;100.00
42859;BME280;28505;56.970;40.998;2023-02-22T19:48:05;99421.22;;;-13.81;100.00
42859;BME280;28505;56.970;40.998;2023-02-22T19:53:27;99426.19;;;-13.88;100.00
42859;BME280;28505;56.970;40.998;2023-02-22T19:58:49;99427.47;;;-13.92;100.00
42859;BME280;28505;56.970;40.998;2023-02-22T20:04:14;99449.56;;;-13.98;100.00
42859;BME280;28505;56.970;40.998;2023-02-22T20:09:42;99452.63;;;-14.02;100.00
42859;BME280;28505;56.970;40.998;2023-02-22T20:15:03;99456.16;;;-14.03;100.00
42859;BME280;28505;56.970;40.998;2023-02-22T20:20:26;99437.88;;;-14.20;100.00
42859;BME280;28505;56.970;40.998;2023-02-22T20:25:52;99452.81;;;-14.13;100.00
42859;BME280;28505;56.970;40.998;2023-02-22T20:31:15;99424.19;;;-14.30;100.00
42859;BME280;28505;56.970;40.998;2023-02-22T20:36:39;99459.25;;;-14.18;100.00
42859;BME280;28505;56.970;40.998;2023-02-22T20:42:04;99442.59;;;-14.33;100.00
42859;BME280;28505;56.970;40.998;2023-02-22T20:47:27;99447.41;;;-14.38;100.00
42859;BME280;28505;56.970;40.998;2023-02-22T20:52:55;99449.59;;;-14.43;100.00
42859;BME280;28505;56.970;40.998;2023-02-22T20:58:20;99443.47;;;-14.60;100.00
42859;BME280;28505;56.970;40.998;2023-02-22T21:03:42;99454.34;;;-14.56;100.00
42859;BME280;28505;56.970;40.998;2023-02-22T21:09:05;99446.88;;;-14.59;100.00
42859;BME280;28505;56.970;40.998;2023-02-22T21:14:29;99462.28;;;-14.58;100.00
42859;BME280;28505;56.970;40.998;2023-02-22T21:19:54;99471.78;;;-14.58;100.00
42859;BME280;28505;56.970;40.998;2023-02-22T21:25:17;99447.41;;;-14.83;100.00
42859;BME280;28505;56.970;40.998;2023-02-22T21:30:40;99458.56;;;-14.83;100.00
42859;BME280;28505;56.970;40.998;2023-02-22T21:36:10;99460.38;;;-14.93;100.00
42859;BME280;28505;56.970;40.998;2023-02-22T21:41:34;99485.78;;;-14.79;100.00
42859;BME280;28505;56.970;40.998;2023-02-22T21:47:00;99483.75;;;-14.85;100.00
42859;BME280;28505;56.970;40.998;2023-02-22T21:52:22;99486.91;;;-14.91;100.00
42859;BME280;28505;56.970;40.998;2023-02-22T21:57:46;99494.38;;;-14.88;100.00
42859;BME280;28505;56.970;40.998;2023-02-22T22:03:09;99510.19;;;-14.91;100.00
42859;BME280;28505;56.970;40.998;2023-02-22T22:08:41;99496.22;;;-15.08;100.00
42859;BME280;28505;56.970;40.998;2023-02-22T22:14:06;99513.91;;;-15.03;100.00
42859;BME280;28505;56.970;40.998;2023-02-22T22:19:29;99511.59;;;-15.06;100.00
42859;BME280;28505;56.970;40.998;2023-02-22T22:24:51;99516.09;;;-15.08;100.00
42859;BME280;28505;56.970;40.998;2023-02-22T22:30:15;99517.59;;;-15.16;100.00
42859;BME280;28505;56.970;40.998;2023-02-22T22:35:37;99516.63;;;-15.15;100.00
42859;BME280;28505;56.970;40.998;2023-02-22T22:40:59;99518.03;;;-15.20;100.00
42859;BME280;28505;56.970;40.998;2023-02-22T22:46:22;99524.56;;;-15.26;100.00
42859;BME280;28505;56.970;40.998;2023-02-22T22:51:44;99527.69;;;-15.32;100.00
42859;BME280;28505;56.970;40.998;2023-02-22T22:57:08;99535.19;;;-15.39;100.00
42859;BME280;28505;56.970;40.998;2023-02-22T23:02:30;99536.41;;;-15.43;100.00
42859;BME280;28505;56.970;40.998;2023-02-22T23:07:52;99525.28;;;-15.63;100.00
42859;BME280;28505;56.970;40.998;2023-02-22T23:13:14;99530.59;;;-15.74;100.00
42859;BME280;28505;56.970;40.998;2023-02-22T23:18:39;99549.22;;;-15.80;100.00
42859;BME280;28505;56.970;40.998;2023-02-22T23:24:04;99547.16;;;-15.86;100.00
42859;BME280;28505;56.970;40.998;2023-02-22T23:29:29;99548.53;;;-15.82;100.00
42859;BME280;28505;56.970;40.998;2023-02-22T23:34:51;99519.28;;;-15.92;100.00
42859;BME280;28505;56.970;40.998;2023-02-22T23:40:14;99549.47;;;-15.83;100.00
42859;BME280;28505;56.970;40.998;2023-02-22T23:45:39;99551.78;;;-15.80;100.00
42859;BME280;28505;56.970;40.998;2023-02-22T23:51:05;99548.53;;;-15.92;100.00
42859;BME280;28505;56.970;40.998;2023-02-22T23:56:29;99556.41;;;-15.93;100.00
